sensor_id;sensor_type;location;lat;lon;timestamp;P1;durP1;ratioP1;P2;durP2;ratioP2
22814;SDS011;11574;51.058;13.712;2024-02-15T00:03:45;5.97;;;3.80;;
22814;SDS011;11574;51.058;13.712;2024-02-15T00:08:50;6.33;;;4.00;;
22814;SDS011;11574;51.058;13.712;2024-02-15T00:13:52;6.77;;;3.70;;
22814;SDS011;11574;51.058;13.712;2024-02-15T00:18:56;5.63;;;3.50;;
22814;SDS011;11574;51.058;13.712;2024-02-15T00:24:01;7.23;;;4.07;;
22814;SDS011;11574;51.058;13.712;2024-02-15T00:29:03;7.07;;;3.70;;
22814;SDS011;11574;51.058;13.712;2024-02-15T00:34:05;8.53;;;3.40;;
22814;SDS011;11574;51.058;13.712;2024-02-15T00:39:10;7.80;;;4.17;;
22814;SDS011;11574;51.058;13.712;2024-02-15T00:44:14;9.77;;;4.37;;
22814;SDS011;11574;51.058;13.712;2024-02-15T00:49:17;8.33;;;4.83;;
22814;SDS011;11574;51.058;13.712;2024-02-15T00:54:21;7.77;;;4.60;;
22814;SDS011;11574;51.058;13.712;2024-02-15T00:59:24;8.67;;;5.27;;
22814;SDS011;11574;51.058;13.712;2024-02-15T01:04:26;9.50;;;5.50;;
22814;SDS011;11574;51.058;13.712;2024-02-15T01:09:30;11.10;;;5.03;;
22814;SDS011;11574;51.058;13.712;2024-02-15T01:14:32;8.77;;;4.93;;
22814;SDS011;11574;51.058;13.712;2024-02-15T01:19:34;11.53;;;5.60;;
22814;SDS011;11574;51.058;13.712;2024-02-15T01:24:40;10.47;;;5.27;;
22814;SDS011;11574;51.058;13.712;2024-02-15T01:29:42;10.27;;;4.77;;
22814;SDS011;11574;51.058;13.712;2024-02-15T01:34:44;7.37;;;4.70;;
22814;SDS011;11574;51.058;13.712;2024-02-15T01:39:48;8.27;;;5.10;;
22814;SDS011;11574;51.058;13.712;2024-02-15T01:44:51;10.27;;;5.13;;
22814;SDS011;11574;51.058;13.712;2024-02-15T01:49:53;7.20;;;4.97;;
22814;SDS011;11574;51.058;13.712;2024-02-15T01:54:58;8.03;;;4.30;;
22814;SDS011;11574;51.058;13.712;2024-02-15T02:00:01;7.00;;;4.40;;
22814;SDS011;11574;51.058;13.712;2024-02-15T02:05:04;7.57;;;4.80;;
22814;SDS011;11574;51.058;13.712;2024-02-15T02:10:08;11.00;;;5.40;;
22814;SDS011;11574;51.058;13.712;2024-02-15T02:15:12;10.20;;;5.37;;
22814;SDS011;11574;51.058;13.712;2024-02-15T02:20:14;9.07;;;5.40;;
22814;SDS011;11574;51.058;13.712;2024-02-15T02:25:18;11.80;;;5.40;;
22814;SDS011;11574;51.058;13.712;2024-02-15T02:30:20;8.00;;;5.40;;
22814;SDS011;11574;51.058;13.712;2024-02-15T02:35:23;9.77;;;5.57;;
22814;SDS011;11574;51.058;13.712;2024-02-15T02:40:26;10.30;;;6.00;;
22814;SDS011;11574;51.058;13.712;2024-02-15T02:45:29;9.97;;;5.37;;
22814;SDS011;11574;51.058;13.712;2024-02-15T02:50:32;8.73;;;5.30;;
22814;SDS011;11574;51.058;13.712;2024-02-15T02:55:35;9.43;;;4.77;;
22814;SDS011;11574;51.058;13.712;2024-02-15T03:00:38;10.57;;;6.80;;
22814;SDS011;11574;51.058;13.712;2024-02-15T03:05:40;7.17;;;4.47;;
22814;SDS011;11574;51.058;13.712;2024-02-15T03:10:44;6.90;;;4.93;;
22814;SDS011;11574;51.058;13.712;2024-02-15T03:15:46;8.23;;;5.00;;
22814;SDS011;11574;51.058;13.712;2024-02-15T03:20:49;9.17;;;4.97;;
22814;SDS011;11574;51.058;13.712;2024-02-15T03:25:52;7.90;;;4.80;;
22814;SDS011;11574;51.058;13.712;2024-02-15T03:30:55;10.03;;;4.90;;
22814;SDS011;11574;51.058;13.712;2024-02-15T03:35:59;7.80;;;4.60;;
22814;SDS011;11574;51.058;13.712;2024-02-15T03:41:03;7.17;;;4.83;;
22814;SDS011;11574;51.058;13.712;2024-02-15T03:46:05;7.00;;;4.70;;
22814;SDS011;11574;51.058;13.712;2024-02-15T03:51:08;8.07;;;4.17;;
22814;SDS011;11574;51.058;13.712;2024-02-15T03:56:12;7.60;;;4.53;;
22814;SDS011;11574;51.058;13.712;2024-02-15T04:01:14;7.77;;;4.10;;
22814;SDS011;11574;51.058;13.712;2024-02-15T04:06:17;10.10;;;4.27;;
22814;SDS011;11574;51.058;13.712;2024-02-15T04:11:20;6.17;;;4.40;;
22814;SDS011;11574;51.058;13.712;2024-02-15T04:16:22;7.77;;;4.47;;
22814;SDS011;11574;51.058;13.712;2024-02-15T04:21:25;7.37;;;4.80;;
22814;SDS011;11574;51.058;13.712;2024-02-15T04:26:29;6.77;;;4.07;;
22814;SDS011;11574;51.058;13.712;2024-02-15T04:31:32;8.43;;;4.50;;
22814;SDS011;11574;51.058;13.712;2024-02-15T04:36:37;9.57;;;4.57;;
22814;SDS011;11574;51.058;13.712;2024-02-15T04:41:40;9.00;;;5.20;;
22814;SDS011;11574;51.058;13.712;2024-02-15T04:46:42;5.77;;;4.53;;
22814;SDS011;11574;51.058;13.712;2024-02-15T04:51:45;6.87;;;5.07;;
22814;SDS011;11574;51.058;13.712;2024-02-15T04:56:49;9.93;;;4.97;;
22814;SDS011;11574;51.058;13.712;2024-02-15T05:01:54;8.90;;;4.70;;
22814;SDS011;11574;51.058;13.712;2024-02-15T05:06:56;7.27;;;5.17;;
22814;SDS011;11574;51.058;13.712;2024-02-15T05:12:00;5.97;;;4.60;;
22814;SDS011;11574;51.058;13.712;2024-02-15T05:17:04;11.67;;;5.20;;
22814;SDS011;11574;51.058;13.712;2024-02-15T05:22:11;6.70;;;4.43;;
22814;SDS011;11574;51.058;13.712;2024-02-15T05:27:16;7.63;;;5.17;;
22814;SDS011;11574;51.058;13.712;2024-02-15T05:32:18;10.10;;;5.40;;
22814;SDS011;11574;51.058;13.712;2024-02-15T05:37:21;7.87;;;4.93;;
22814;SDS011;11574;51.058;13.712;2024-02-15T05:42:26;6.80;;;4.77;;
22814;SDS011;11574;51.058;13.712;2024-02-15T05:47:28;8.17;;;4.63;;
22814;SDS011;11574;51.058;13.712;2024-02-15T05:52:30;8.77;;;5.43;;
22814;SDS011;11574;51.058;13.712;2024-02-15T05:57:34;11.43;;;5.73;;
22814;SDS011;11574;51.058;13.712;2024-02-15T06:02:36;9.23;;;5.90;;
22814;SDS011;11574;51.058;13.712;2024-02-15T06:07:39;10.80;;;5.90;;
22814;SDS011;11574;51.058;13.712;2024-02-15T06:12:42;9.23;;;5.83;;
22814;SDS011;11574;51.058;13.712;2024-02-15T06:17:45;13.57;;;6.17;;
22814;SDS011;11574;51.058;13.712;2024-02-15T06:22:48;10.90;;;6.40;;
22814;SDS011;11574;51.058;13.712;2024-02-15T06:27:53;12.10;;;6.43;;
22814;SDS011;11574;51.058;13.712;2024-02-15T06:32:59;9.47;;;6.20;;
22814;SDS011;11574;51.058;13.712;2024-02-15T06:38:19;13.93;;;6.87;;
22814;SDS011;11574;51.058;13.712;2024-02-15T06:43:40;11.20;;;6.87;;
22814;SDS011;11574;51.058;13.712;2024-02-15T06:48:43;15.97;;;6.73;;
22814;SDS011;11574;51.058;13.712;2024-02-15T06:53:46;13.27;;;6.90;;
22814;SDS011;11574;51.058;13.712;2024-02-15T06:58:51;10.80;;;6.90;;
22814;SDS011;11574;51.058;13.712;2024-02-15T07:03:53;9.53;;;7.20;;
22814;SDS011;11574;51.058;13.712;2024-02-15T07:08:56;12.17;;;7.63;;
22814;SDS011;11574;51.058;13.712;2024-02-15T07:14:00;13.60;;;7.50;;
22814;SDS011;11574;51.058;13.712;2024-02-15T07:19:02;10.37;;;7.33;;
22814;SDS011;11574;51.058;13.712;2024-02-15T07:24:04;16.33;;;8.70;;
22814;SDS011;11574;51.058;13.712;2024-02-15T07:29:08;15.13;;;9.03;;
22814;SDS011;11574;51.058;13.712;2024-02-15T07:34:11;11.93;;;8.37;;
22814;SDS011;11574;51.058;13.712;2024-02-15T07:39:13;19.67;;;8.50;;
22814;SDS011;11574;51.058;13.712;2024-02-15T07:44:24;16.80;;;9.73;;
22814;SDS011;11574;51.058;13.712;2024-02-15T07:49:30;14.43;;;8.80;;
22814;SDS011;11574;51.058;13.712;2024-02-15T07:54:33;15.67;;;8.53;;
22814;SDS011;11574;51.058;13.712;2024-02-15T07:59:37;13.10;;;7.67;;
22814;SDS011;11574;51.058;13.712;2024-02-15T08:04:40;14.90;;;7.97;;
22814;SDS011;11574;51.058;13.712;2024-02-15T08:09:44;12.13;;;7.80;;
22814;SDS011;11574;51.058;13.712;2024-02-15T08:14:48;14.40;;;8.83;;
22814;SDS011;11574;51.058;13.712;2024-02-15T08:19:50;13.10;;;8.50;;
22814;SDS011;11574;51.058;13.712;2024-02-15T08:24:53;16.17;;;8.57;;
22814;SDS011;11574;51.058;13.712;2024-02-15T08:29:57;13.27;;;8.10;;
22814;SDS011;11574;51.058;13.712;2024-02-15T08:34:59;16.27;;;8.77;;
22814;SDS011;11574;51.058;13.712;2024-02-15T08:40:03;15.40;;;7.97;;
22814;SDS011;11574;51.058;13.712;2024-02-15T08:45:11;14.27;;;7.53;;
22814;SDS011;11574;51.058;13.712;2024-02-15T08:50:14;11.17;;;7.07;;
22814;SDS011;11574;51.058;13.712;2024-02-15T08:55:16;10.00;;;6.57;;
22814;SDS011;11574;51.058;13.712;2024-02-15T09:00:22;13.73;;;8.40;;
22814;SDS011;11574;51.058;13.712;2024-02-15T09:05:26;11.50;;;7.60;;
22814;SDS011;11574;51.058;13.712;2024-02-15T09:10:29;11.33;;;7.83;;
22814;SDS011;11574;51.058;13.712;2024-02-15T09:15:32;14.50;;;8.33;;
22814;SDS011;11574;51.058;13.712;2024-02-15T09:20:35;12.50;;;8.23;;
22814;SDS011;11574;51.058;13.712;2024-02-15T09:25:40;14.73;;;8.57;;
22814;SDS011;11574;51.058;13.712;2024-02-15T09:30:45;18.03;;;8.00;;
22814;SDS011;11574;51.058;13.712;2024-02-15T09:35:48;10.77;;;7.50;;
22814;SDS011;11574;51.058;13.712;2024-02-15T09:40:50;11.17;;;6.57;;
22814;SDS011;11574;51.058;13.712;2024-02-15T09:45:54;9.50;;;6.13;;
22814;SDS011;11574;51.058;13.712;2024-02-15T09:50:56;11.10;;;6.37;;
22814;SDS011;11574;51.058;13.712;2024-02-15T09:56:01;9.93;;;6.10;;
22814;SDS011;11574;51.058;13.712;2024-02-15T10:01:07;12.80;;;6.23;;
22814;SDS011;11574;51.058;13.712;2024-02-15T10:06:11;10.03;;;6.40;;
22814;SDS011;11574;51.058;13.712;2024-02-15T10:11:13;10.30;;;6.20;;
22814;SDS011;11574;51.058;13.712;2024-02-15T10:16:17;9.10;;;5.50;;
22814;SDS011;11574;51.058;13.712;2024-02-15T10:21:25;10.63;;;5.83;;
22814;SDS011;11574;51.058;13.712;2024-02-15T10:26:29;9.43;;;4.43;;
22814;SDS011;11574;51.058;13.712;2024-02-15T10:31:33;11.83;;;5.80;;
22814;SDS011;11574;51.058;13.712;2024-02-15T10:36:36;10.50;;;6.33;;
22814;SDS011;11574;51.058;13.712;2024-02-15T10:41:39;11.10;;;6.60;;
22814;SDS011;11574;51.058;13.712;2024-02-15T10:46:43;10.60;;;6.70;;
22814;SDS011;11574;51.058;13.712;2024-02-15T10:51:49;10.77;;;7.10;;
22814;SDS011;11574;51.058;13.712;2024-02-15T10:56:53;11.97;;;6.23;;
22814;SDS011;11574;51.058;13.712;2024-02-15T11:01:59;11.77;;;6.50;;
22814;SDS011;11574;51.058;13.712;2024-02-15T11:07:04;8.73;;;5.93;;
22814;SDS011;11574;51.058;13.712;2024-02-15T11:12:08;11.33;;;5.93;;
22814;SDS011;11574;51.058;13.712;2024-02-15T11:17:13;15.37;;;7.37;;
22814;SDS011;11574;51.058;13.712;2024-02-15T11:22:35;9.27;;;5.27;;
22814;SDS011;11574;51.058;13.712;2024-02-15T11:27:37;8.00;;;5.23;;
22814;SDS011;11574;51.058;13.712;2024-02-15T11:32:42;7.17;;;5.40;;
22814;SDS011;11574;51.058;13.712;2024-02-15T11:37:51;8.10;;;4.80;;
22814;SDS011;11574;51.058;13.712;2024-02-15T11:42:54;4.00;;;1.70;;
22814;SDS011;11574;51.058;13.712;2024-02-15T11:47:58;3.20;;;1.40;;
22814;SDS011;11574;51.058;13.712;2024-02-15T11:53:02;1.50;;;0.83;;
22814;SDS011;11574;51.058;13.712;2024-02-15T11:58:09;1.33;;;0.93;;
22814;SDS011;11574;51.058;13.712;2024-02-15T12:03:23;2.97;;;0.90;;
22814;SDS011;11574;51.058;13.712;2024-02-15T12:08:44;4.23;;;0.90;;
22814;SDS011;11574;51.058;13.712;2024-02-15T12:14:04;2.00;;;0.80;;
22814;SDS011;11574;51.058;13.712;2024-02-15T12:19:25;2.90;;;0.90;;
22814;SDS011;11574;51.058;13.712;2024-02-15T12:24:27;1.83;;;0.87;;
22814;SDS011;11574;51.058;13.712;2024-02-15T12:29:30;4.80;;;1.07;;
22814;SDS011;11574;51.058;13.712;2024-02-15T12:34:34;3.27;;;1.20;;
22814;SDS011;11574;51.058;13.712;2024-02-15T12:39:38;1.80;;;1.17;;
22814;SDS011;11574;51.058;13.712;2024-02-15T12:44:44;2.70;;;0.97;;
22814;SDS011;11574;51.058;13.712;2024-02-15T12:49:48;2.30;;;0.80;;
22814;SDS011;11574;51.058;13.712;2024-02-15T12:55:03;2.07;;;0.90;;
22814;SDS011;11574;51.058;13.712;2024-02-15T13:00:08;1.43;;;0.70;;
22814;SDS011;11574;51.058;13.712;2024-02-15T13:05:19;2.00;;;0.97;;
22814;SDS011;11574;51.058;13.712;2024-02-15T13:10:23;2.53;;;0.80;;
22814;SDS011;11574;51.058;13.712;2024-02-15T13:15:25;2.43;;;1.87;;
22814;SDS011;11574;51.058;13.712;2024-02-15T13:20:34;1.70;;;1.00;;
22814;SDS011;11574;51.058;13.712;2024-02-15T13:25:37;1.97;;;0.97;;
22814;SDS011;11574;51.058;13.712;2024-02-15T13:30:40;3.67;;;1.77;;
22814;SDS011;11574;51.058;13.712;2024-02-15T13:35:46;2.50;;;0.93;;
22814;SDS011;11574;51.058;13.712;2024-02-15T13:40:49;3.73;;;0.80;;
22814;SDS011;11574;51.058;13.712;2024-02-15T13:45:52;1.07;;;0.77;;
22814;SDS011;11574;51.058;13.712;2024-02-15T13:50:55;2.10;;;0.70;;
22814;SDS011;11574;51.058;13.712;2024-02-15T13:55:58;0.90;;;0.70;;
22814;SDS011;11574;51.058;13.712;2024-02-15T14:01:00;0.87;;;0.60;;
22814;SDS011;11574;51.058;13.712;2024-02-15T14:06:06;0.60;;;0.60;;
22814;SDS011;11574;51.058;13.712;2024-02-15T14:11:08;0.90;;;0.60;;
22814;SDS011;11574;51.058;13.712;2024-02-15T14:16:10;1.20;;;0.50;;
22814;SDS011;11574;51.058;13.712;2024-02-15T14:21:14;2.47;;;0.80;;
22814;SDS011;11574;51.058;13.712;2024-02-15T14:26:17;1.33;;;0.67;;
22814;SDS011;11574;51.058;13.712;2024-02-15T14:31:19;1.07;;;0.60;;
22814;SDS011;11574;51.058;13.712;2024-02-15T14:36:40;1.00;;;0.77;;
22814;SDS011;11574;51.058;13.712;2024-02-15T14:41:43;1.17;;;0.70;;
22814;SDS011;11574;51.058;13.712;2024-02-15T14:46:45;1.67;;;0.63;;
22814;SDS011;11574;51.058;13.712;2024-02-15T14:51:49;2.80;;;0.60;;
22814;SDS011;11574;51.058;13.712;2024-02-15T14:56:51;1.57;;;0.80;;
22814;SDS011;11574;51.058;13.712;2024-02-15T15:01:54;2.23;;;1.10;;
22814;SDS011;11574;51.058;13.712;2024-02-15T15:06:59;1.87;;;0.70;;
22814;SDS011;11574;51.058;13.712;2024-02-15T15:12:19;1.23;;;0.70;;
22814;SDS011;11574;51.058;13.712;2024-02-15T15:17:40;1.57;;;0.70;;
22814;SDS011;11574;51.058;13.712;2024-02-15T15:22:44;4.30;;;2.37;;
22814;SDS011;11574;51.058;13.712;2024-02-15T15:27:46;7.00;;;4.47;;
22814;SDS011;11574;51.058;13.712;2024-02-15T15:32:50;7.30;;;4.30;;
22814;SDS011;11574;51.058;13.712;2024-02-15T15:37:54;6.33;;;3.80;;
22814;SDS011;11574;51.058;13.712;2024-02-15T15:42:57;11.83;;;4.97;;
22814;SDS011;11574;51.058;13.712;2024-02-15T15:47:59;11.00;;;5.70;;
22814;SDS011;11574;51.058;13.712;2024-02-15T15:53:05;9.57;;;5.70;;
22814;SDS011;11574;51.058;13.712;2024-02-15T15:58:07;15.67;;;6.27;;
22814;SDS011;11574;51.058;13.712;2024-02-15T16:03:10;12.43;;;6.57;;
22814;SDS011;11574;51.058;13.712;2024-02-15T16:08:14;15.90;;;7.37;;
22814;SDS011;11574;51.058;13.712;2024-02-15T16:13:16;17.93;;;7.10;;
22814;SDS011;11574;51.058;13.712;2024-02-15T16:18:20;12.73;;;8.03;;
22814;SDS011;11574;51.058;13.712;2024-02-15T16:23:24;11.07;;;7.57;;
22814;SDS011;11574;51.058;13.712;2024-02-15T16:28:27;16.60;;;7.80;;
22814;SDS011;11574;51.058;13.712;2024-02-15T16:33:29;18.90;;;9.43;;
22814;SDS011;11574;51.058;13.712;2024-02-15T16:38:34;13.20;;;8.70;;
22814;SDS011;11574;51.058;13.712;2024-02-15T16:43:36;12.90;;;8.17;;
22814;SDS011;11574;51.058;13.712;2024-02-15T16:48:39;12.40;;;8.57;;
22814;SDS011;11574;51.058;13.712;2024-02-15T16:53:42;13.67;;;9.23;;
22814;SDS011;11574;51.058;13.712;2024-02-15T16:58:45;14.87;;;8.43;;
22814;SDS011;11574;51.058;13.712;2024-02-15T17:03:48;13.90;;;9.23;;
22814;SDS011;11574;51.058;13.712;2024-02-15T17:08:52;14.07;;;8.80;;
22814;SDS011;11574;51.058;13.712;2024-02-15T17:13:56;15.20;;;9.20;;
22814;SDS011;11574;51.058;13.712;2024-02-15T17:19:01;15.13;;;8.93;;
22814;SDS011;11574;51.058;13.712;2024-02-15T17:24:04;14.73;;;8.73;;
22814;SDS011;11574;51.058;13.712;2024-02-15T17:29:07;16.33;;;8.80;;
22814;SDS011;11574;51.058;13.712;2024-02-15T17:34:11;13.00;;;9.17;;
22814;SDS011;11574;51.058;13.712;2024-02-15T17:39:14;17.67;;;10.57;;
22814;SDS011;11574;51.058;13.712;2024-02-15T17:44:17;18.00;;;10.20;;
22814;SDS011;11574;51.058;13.712;2024-02-15T17:49:19;15.33;;;9.97;;
22814;SDS011;11574;51.058;13.712;2024-02-15T17:54:23;13.37;;;9.53;;
22814;SDS011;11574;51.058;13.712;2024-02-15T17:59:25;14.10;;;9.20;;
22814;SDS011;11574;51.058;13.712;2024-02-15T18:04:27;17.23;;;9.43;;
22814;SDS011;11574;51.058;13.712;2024-02-15T18:09:31;16.13;;;9.63;;
22814;SDS011;11574;51.058;13.712;2024-02-15T18:14:33;14.90;;;9.80;;
22814;SDS011;11574;51.058;13.712;2024-02-15T18:19:35;16.60;;;9.87;;
22814;SDS011;11574;51.058;13.712;2024-02-15T18:24:39;17.77;;;10.40;;
22814;SDS011;11574;51.058;13.712;2024-02-15T18:29:41;16.43;;;10.37;;
22814;SDS011;11574;51.058;13.712;2024-02-15T18:34:43;21.50;;;10.30;;
22814;SDS011;11574;51.058;13.712;2024-02-15T18:39:48;16.60;;;10.70;;
22814;SDS011;11574;51.058;13.712;2024-02-15T18:44:51;15.77;;;10.87;;
22814;SDS011;11574;51.058;13.712;2024-02-15T18:49:53;15.33;;;10.10;;
22814;SDS011;11574;51.058;13.712;2024-02-15T18:54:56;15.50;;;10.30;;
22814;SDS011;11574;51.058;13.712;2024-02-15T18:59:59;15.07;;;10.43;;
22814;SDS011;11574;51.058;13.712;2024-02-15T19:05:01;17.27;;;11.73;;
22814;SDS011;11574;51.058;13.712;2024-02-15T19:10:13;17.57;;;10.70;;
22814;SDS011;11574;51.058;13.712;2024-02-15T19:15:15;17.47;;;12.40;;
22814;SDS011;11574;51.058;13.712;2024-02-15T19:20:18;18.47;;;12.23;;
22814;SDS011;11574;51.058;13.712;2024-02-15T19:25:21;21.80;;;12.80;;
22814;SDS011;11574;51.058;13.712;2024-02-15T19:30:25;18.53;;;12.67;;
22814;SDS011;11574;51.058;13.712;2024-02-15T19:35:27;20.57;;;13.07;;
22814;SDS011;11574;51.058;13.712;2024-02-15T19:40:32;24.20;;;14.00;;
22814;SDS011;11574;51.058;13.712;2024-02-15T19:45:35;22.23;;;14.60;;
22814;SDS011;11574;51.058;13.712;2024-02-15T19:50:42;24.73;;;15.00;;
22814;SDS011;11574;51.058;13.712;2024-02-15T19:55:46;23.27;;;15.03;;
22814;SDS011;11574;51.058;13.712;2024-02-15T20:00:48;23.73;;;15.50;;
22814;SDS011;11574;51.058;13.712;2024-02-15T20:05:51;24.50;;;15.60;;
22814;SDS011;11574;51.058;13.712;2024-02-15T20:11:00;24.80;;;16.13;;
22814;SDS011;11574;51.058;13.712;2024-02-15T20:16:02;26.00;;;16.73;;
22814;SDS011;11574;51.058;13.712;2024-02-15T20:21:05;29.40;;;16.60;;
22814;SDS011;11574;51.058;13.712;2024-02-15T20:26:11;26.57;;;16.43;;
22814;SDS011;11574;51.058;13.712;2024-02-15T20:31:15;29.87;;;17.50;;
22814;SDS011;11574;51.058;13.712;2024-02-15T20:36:18;26.93;;;17.27;;
22814;SDS011;11574;51.058;13.712;2024-02-15T20:41:22;27.97;;;16.30;;
22814;SDS011;11574;51.058;13.712;2024-02-15T20:46:30;28.80;;;17.77;;
22814;SDS011;11574;51.058;13.712;2024-02-15T20:51:32;30.37;;;18.40;;
22814;SDS011;11574;51.058;13.712;2024-02-15T20:56:37;32.73;;;18.93;;
22814;SDS011;11574;51.058;13.712;2024-02-15T21:01:40;30.30;;;18.30;;
22814;SDS011;11574;51.058;13.712;2024-02-15T21:06:43;31.03;;;18.77;;
22814;SDS011;11574;51.058;13.712;2024-02-15T21:11:48;29.00;;;17.63;;
22814;SDS011;11574;51.058;13.712;2024-02-15T21:16:55;31.40;;;18.63;;
22814;SDS011;11574;51.058;13.712;2024-02-15T21:21:57;34.13;;;19.77;;
22814;SDS011;11574;51.058;13.712;2024-02-15T21:27:03;28.83;;;17.87;;
22814;SDS011;11574;51.058;13.712;2024-02-15T21:32:09;31.17;;;18.93;;
22814;SDS011;11574;51.058;13.712;2024-02-15T21:37:16;30.53;;;18.50;;
22814;SDS011;11574;51.058;13.712;2024-02-15T21:42:25;34.00;;;17.50;;
22814;SDS011;11574;51.058;13.712;2024-02-15T21:47:27;28.37;;;17.93;;
22814;SDS011;11574;51.058;13.712;2024-02-15T21:52:30;31.57;;;17.30;;
22814;SDS011;11574;51.058;13.712;2024-02-15T21:57:33;27.50;;;16.43;;
22814;SDS011;11574;51.058;13.712;2024-02-15T22:02:36;28.43;;;17.63;;
22814;SDS011;11574;51.058;13.712;2024-02-15T22:07:39;25.87;;;16.70;;
22814;SDS011;11574;51.058;13.712;2024-02-15T22:12:43;29.97;;;16.57;;
22814;SDS011;11574;51.058;13.712;2024-02-15T22:17:46;26.17;;;16.57;;
22814;SDS011;11574;51.058;13.712;2024-02-15T22:22:49;30.23;;;16.70;;
22814;SDS011;11574;51.058;13.712;2024-02-15T22:27:52;28.60;;;16.70;;
22814;SDS011;11574;51.058;13.712;2024-02-15T22:32:55;30.27;;;16.27;;
22814;SDS011;11574;51.058;13.712;2024-02-15T22:37:58;41.90;;;25.23;;
22814;SDS011;11574;51.058;13.712;2024-02-15T22:43:02;33.63;;;21.43;;
22814;SDS011;11574;51.058;13.712;2024-02-15T22:48:05;34.67;;;20.73;;
22814;SDS011;11574;51.058;13.712;2024-02-15T22:53:07;26.10;;;15.63;;
22814;SDS011;11574;51.058;13.712;2024-02-15T22:58:11;27.47;;;17.77;;
22814;SDS011;11574;51.058;13.712;2024-02-15T23:03:13;25.97;;;16.23;;
22814;SDS011;11574;51.058;13.712;2024-02-15T23:08:16;25.67;;;15.10;;
22814;SDS011;11574;51.058;13.712;2024-02-15T23:13:19;24.10;;;14.80;;
22814;SDS011;11574;51.058;13.712;2024-02-15T23:18:21;25.47;;;14.67;;
22814;SDS011;11574;51.058;13.712;2024-02-15T23:23:24;24.03;;;15.20;;
22814;SDS011;11574;51.058;13.712;2024-02-15T23:28:27;25.67;;;15.93;;
22814;SDS011;11574;51.058;13.712;2024-02-15T23:33:29;23.80;;;14.50;;
22814;SDS011;11574;51.058;13.712;2024-02-15T23:38:32;27.67;;;14.87;;
22814;SDS011;11574;51.058;13.712;2024-02-15T23:43:56;23.93;;;14.80;;
22814;SDS011;11574;51.058;13.712;2024-02-15T23:48:58;26.60;;;15.37;;
22814;SDS011;11574;51.058;13.712;2024-02-15T23:54:00;24.73;;;14.80;;
22814;SDS011;11574;51.058;13.712;2024-02-15T23:59:04;22.80;;;13.50;;
